Time;durP1;ratioP1;P1;durP2;ratioP2;P2;SDS_P1;SDS_P2;PMS_P1;PMS_P2;Temp;Humidity;BMP_temperature;BMP_pressure;BME280_temperature;BME280_humidity;BME280_pressure;Samples;Min_cycle;Max_cycle;Signal;HPM_P1;HPM_P2
2020/12/31 00:02:12;;;;;;;23.63;16.20;;;;;;;;;;5086160;28;20233;-72
2020/12/31 00:04:38;;;;;;;23.02;17.45;;;;;;;;;;5096216;28;20524;-74
2020/12/31 00:07:04;;;;;;;22.73;16.33;;;;;;;;;;5096898;28;20250;-75
2020/12/31 00:09:30;;;;;;;23.70;18.05;;;;;;;;;;5101241;28;20194;-73
2020/12/31 00:11:56;;;;;;;22.23;17.33;;;;;;;;;;5076501;28;20225;-74
2020/12/31 00:14:22;;;;;;;23.00;17.42;;;;;;;;;;5092896;28;20225;-73
2020/12/31 00:16:48;;;;;;;25.02;17.35;;;;;;;;;;5088587;28;20251;-72
2020/12/31 00:19:14;;;;;;;23.35;17.60;;;;;;;;;;5086040;28;20198;-73
2020/12/31 00:21:40;;;;;;;22.50;17.67;;;;;;;;;;5081869;28;20752;-73
2020/12/31 00:24:06;;;;;;;24.48;17.60;;;;;;;;;;5095729;28;20258;-73
2020/12/31 00:26:32;;;;;;;21.58;17.58;;;;;;;;;;5096310;28;20214;-74
2020/12/31 00:28:59;;;;;;;22.70;17.30;;;;;;;;;;5093776;28;20643;-73
2020/12/31 00:31:25;;;;;;;22.83;16.83;;;;;;;;;;5087839;28;20564;-74
2020/12/31 00:33:51;;;;;;;23.20;17.20;;;;;;;;;;5088622;28;20179;-74
2020/12/31 00:36:17;;;;;;;21.70;17.48;;;;;;;;;;5076108;28;20176;-75
2020/12/31 00:38:43;;;;;;;22.63;17.23;;;;;;;;;;5092181;28;20236;-74
2020/12/31 00:41:09;;;;;;;22.33;17.17;;;;;;;;;;5091917;28;20203;-74
2020/12/31 00:43:35;;;;;;;20.30;15.65;;;;;;;;;;5095291;28;20247;-75
2020/12/31 00:46:01;;;;;;;22.02;15.40;;;;;;;;;;5091351;28;20270;-75
2020/12/31 00:48:27;;;;;;;19.50;16.15;;;;;;;;;;5093791;28;20182;-75
2020/12/31 00:50:53;;;;;;;19.73;16.08;;;;;;;;;;5095018;28;20215;-73
2020/12/31 00:53:19;;;;;;;18.27;15.75;;;;;;;;;;5078965;28;20248;-75
2020/12/31 00:55:45;;;;;;;19.92;16.10;;;;;;;;;;5084191;28;20549;-75
2020/12/31 00:58:11;;;;;;;21.02;16.30;;;;;;;;;;5095445;28;20257;-75
2020/12/31 01:00:37;;;;;;;23.30;15.88;;;;;;;;;;5094917;28;20203;-73
2020/12/31 01:03:05;;;;;;;18.52;15.25;;;;;;;;;;5085256;28;20180;-74
2020/12/31 01:05:31;;;;;;;19.92;15.45;;;;;;;;;;5076867;28;20521;-74
2020/12/31 01:07:57;;;;;;;17.92;13.88;;;;;;;;;;5089859;28;20270;-74
2020/12/31 01:10:23;;;;;;;16.63;14.43;;;;;;;;;;5102228;28;20210;-74
2020/12/31 01:12:49;;;;;;;16.67;14.88;;;;;;;;;;5083901;28;20624;-74
2020/12/31 01:15:15;;;;;;;20.63;14.18;;;;;;;;;;5094551;28;20250;-73
2020/12/31 01:17:41;;;;;;;18.20;14.40;;;;;;;;;;5095275;28;20183;-72
2020/12/31 01:20:08;;;;;;;16.38;13.57;;;;;;;;;;5091312;28;20302;-75
2020/12/31 01:22:34;;;;;;;16.98;14.65;;;;;;;;;;5095002;28;20254;-76
2020/12/31 01:25:00;;;;;;;16.42;13.10;;;;;;;;;;5094281;28;20640;-73
2020/12/31 01:27:26;;;;;;;17.35;13.00;;;;;;;;;;5095424;28;20510;-72
2020/12/31 01:29:52;;;;;;;17.10;13.88;;;;;;;;;;5083262;28;20211;-76
2020/12/31 01:32:22;;;;;;;16.67;13.52;;;;;;;;;;5075094;28;20201;-74
2020/12/31 01:34:48;;;;;;;20.95;14.23;;;;;;;;;;5094232;28;20168;-75
2020/12/31 01:37:16;;;;;;;17.02;12.95;;;;;;;;;;5083191;28;20172;-73
2020/12/31 01:39:42;;;;;;;15.15;13.48;;;;;;;;;;5093548;28;20636;-74
2020/12/31 01:42:08;;;;;;;18.40;13.23;;;;;;;;;;5082785;28;20180;-74
2020/12/31 01:44:34;;;;;;;17.00;12.80;;;;;;;;;;5087637;28;20234;-75
2020/12/31 01:47:01;;;;;;;21.90;16.65;;;;;;;;;;5080178;28;20659;-74
2020/12/31 01:49:28;;;;;;;13.90;12.10;;;;;;;;;;5091005;28;20214;-73
2020/12/31 01:51:55;;;;;;;16.25;13.20;;;;;;;;;;5086642;28;20176;-73
2020/12/31 01:54:22;;;;;;;15.82;13.02;;;;;;;;;;5085103;28;20191;-74
2020/12/31 01:56:49;;;;;;;16.60;12.70;;;;;;;;;;5091012;28;20222;-73
2020/12/31 01:59:18;;;;;;;13.73;11.95;;;;;;;;;;5094533;28;20182;-74
2020/12/31 02:01:44;;;;;;;18.85;11.90;;;;;;;;;;5093982;28;20202;-74
2020/12/31 02:04:10;;;;;;;16.40;14.10;;;;;;;;;;5094301;28;20175;-75
2020/12/31 02:06:38;;;;;;;17.25;13.50;;;;;;;;;;5090511;28;20259;-74
2020/12/31 02:09:04;;;;;;;18.08;13.90;;;;;;;;;;5081756;28;20158;-74
2020/12/31 02:11:30;;;;;;;19.35;13.80;;;;;;;;;;5083233;28;20304;-74
2020/12/31 02:13:56;;;;;;;18.02;14.65;;;;;;;;;;5087780;28;20175;-74
2020/12/31 02:16:24;;;;;;;20.45;14.38;;;;;;;;;;5089120;28;20202;-74
2020/12/31 02:18:56;;;;;;;20.23;15.25;;;;;;;;;;5074364;28;20636;-74
2020/12/31 02:21:30;;;;;;;18.85;15.55;;;;;;;;;;5078583;28;20215;-74
2020/12/31 02:23:57;;;;;;;20.30;16.27;;;;;;;;;;5082451;28;20187;-75
2020/12/31 02:26:24;;;;;;;20.05;15.13;;;;;;;;;;5073889;28;20322;-74
2020/12/31 02:28:51;;;;;;;20.77;16.42;;;;;;;;;;5083567;28;20638;-73
2020/12/31 02:31:17;;;;;;;26.85;16.10;;;;;;;;;;5093833;28;20533;-74
2020/12/31 02:33:44;;;;;;;22.13;17.45;;;;;;;;;;5093771;28;20213;-75
2020/12/31 02:36:10;;;;;;;21.60;18.08;;;;;;;;;;5093821;28;20172;-74
2020/12/31 02:38:36;;;;;;;23.50;16.90;;;;;;;;;;5093350;28;20246;-74
2020/12/31 02:41:03;;;;;;;24.73;16.40;;;;;;;;;;5078815;28;20196;-74
2020/12/31 02:43:29;;;;;;;25.95;17.48;;;;;;;;;;5089312;28;20268;-73
2020/12/31 02:45:55;;;;;;;22.83;17.50;;;;;;;;;;5093311;28;20225;-74
2020/12/31 02:48:21;;;;;;;26.83;19.65;;;;;;;;;;5088468;28;20183;-74
2020/12/31 02:50:47;;;;;;;26.05;18.30;;;;;;;;;;5093384;28;20209;-74
2020/12/31 02:53:13;;;;;;;25.73;18.85;;;;;;;;;;5082614;28;20206;-74
2020/12/31 02:55:39;;;;;;;28.55;18.98;;;;;;;;;;5086666;28;20177;-75
2020/12/31 02:58:05;;;;;;;27.40;18.65;;;;;;;;;;5080682;28;20175;-72
2020/12/31 03:00:31;;;;;;;29.10;19.85;;;;;;;;;;5075759;28;20699;-73
2020/12/31 03:02:57;;;;;;;31.15;20.63;;;;;;;;;;5093380;28;20183;-73
2020/12/31 03:05:23;;;;;;;30.45;19.85;;;;;;;;;;5092852;28;20175;-73
2020/12/31 03:07:49;;;;;;;30.83;20.10;;;;;;;;;;5078812;28;20645;-75
2020/12/31 03:10:15;;;;;;;30.50;21.10;;;;;;;;;;5091967;28;20206;-75
2020/12/31 03:12:41;;;;;;;29.63;20.80;;;;;;;;;;5093094;28;20191;-73
2020/12/31 03:15:08;;;;;;;31.02;21.08;;;;;;;;;;5092859;28;20171;-73
2020/12/31 03:17:34;;;;;;;30.85;20.73;;;;;;;;;;5083884;28;20224;-74
2020/12/31 03:20:00;;;;;;;32.83;22.13;;;;;;;;;;5092897;28;20199;-75
2020/12/31 03:22:26;;;;;;;32.38;21.67;;;;;;;;;;5079075;28;20204;-73
2020/12/31 03:24:52;;;;;;;34.15;20.73;;;;;;;;;;5085236;28;20207;-75
2020/12/31 03:27:18;;;;;;;33.67;21.33;;;;;;;;;;5083371;28;20258;-74
2020/12/31 03:29:44;;;;;;;29.33;21.40;;;;;;;;;;5088430;28;20704;-74
2020/12/31 03:32:10;;;;;;;32.13;20.63;;;;;;;;;;5091867;28;20179;-75
2020/12/31 03:34:36;;;;;;;29.92;21.23;;;;;;;;;;5077033;28;20190;-75
2020/12/31 03:37:02;;;;;;;35.60;22.90;;;;;;;;;;5093050;28;20171;-73
2020/12/31 03:39:28;;;;;;;32.70;20.80;;;;;;;;;;5092816;28;20237;-75
2020/12/31 03:41:54;;;;;;;32.40;22.98;;;;;;;;;;5078888;28;20564;-75
2020/12/31 03:44:20;;;;;;;32.45;21.73;;;;;;;;;;5080477;28;20175;-75
2020/12/31 03:46:46;;;;;;;35.22;22.83;;;;;;;;;;5078660;28;20172;-74
2020/12/31 03:49:12;;;;;;;29.45;21.35;;;;;;;;;;5080659;28;20263;-75
2020/12/31 03:51:38;;;;;;;35.13;23.02;;;;;;;;;;5085590;28;20203;-74
2020/12/31 03:54:04;;;;;;;36.10;24.25;;;;;;;;;;5072391;28;20217;-76
2020/12/31 03:56:30;;;;;;;34.83;22.50;;;;;;;;;;5087430;28;20633;-73
2020/12/31 03:58:56;;;;;;;34.03;23.05;;;;;;;;;;5091308;28;20171;-73
2020/12/31 04:01:28;;;;;;;37.85;24.83;;;;;;;;;;5091206;28;20548;-73
2020/12/31 04:03:53;;;;;;;39.47;23.40;;;;;;;;;;5081429;28;20183;-75
2020/12/31 04:06:19;;;;;;;36.13;23.27;;;;;;;;;;5090311;28;20673;-75
2020/12/31 04:08:45;;;;;;;33.45;23.40;;;;;;;;;;5074758;28;20238;-74
2020/12/31 04:11:11;;;;;;;33.88;23.67;;;;;;;;;;5086992;28;20269;-73
2020/12/31 04:13:37;;;;;;;34.90;21.70;;;;;;;;;;5080563;28;20172;-74
2020/12/31 04:16:03;;;;;;;38.67;24.05;;;;;;;;;;5090435;28;20207;-74
2020/12/31 04:18:29;;;;;;;33.08;21.55;;;;;;;;;;5092679;28;20186;-75
2020/12/31 04:20:57;;;;;;;34.95;22.42;;;;;;;;;;5090608;28;20292;-73
2020/12/31 04:23:23;;;;;;;35.53;24.13;;;;;;;;;;5072285;28;20271;-75
2020/12/31 04:25:50;;;;;;;34.97;22.92;;;;;;;;;;5077459;28;20180;-75
2020/12/31 04:28:16;;;;;;;36.90;22.55;;;;;;;;;;5088057;28;20183;-74
2020/12/31 04:30:42;;;;;;;34.65;23.60;;;;;;;;;;5092661;28;20212;-75
2020/12/31 04:33:08;;;;;;;34.35;22.23;;;;;;;;;;5092052;28;20522;-74
2020/12/31 04:35:34;;;;;;;31.52;21.92;;;;;;;;;;5088629;28;20642;-75
2020/12/31 04:38:00;;;;;;;32.15;22.45;;;;;;;;;;5083180;28;20179;-73
2020/12/31 04:40:26;;;;;;;34.65;22.63;;;;;;;;;;5078449;28;20285;-76
2020/12/31 04:42:52;;;;;;;32.78;22.95;;;;;;;;;;5092101;28;20236;-73
2020/12/31 04:45:19;;;;;;;34.22;21.92;;;;;;;;;;5091294;28;20620;-75
2020/12/31 04:47:54;;;;;;;34.50;22.70;;;;;;;;;;5075799;28;20172;-74
2020/12/31 04:50:21;;;;;;;31.70;22.88;;;;;;;;;;5078622;28;20202;-76
2020/12/31 04:52:49;;;;;;;33.90;23.05;;;;;;;;;;5096211;28;20187;-74
2020/12/31 04:55:15;;;;;;;37.60;23.02;;;;;;;;;;5091644;28;20184;-76
2020/12/31 04:57:41;;;;;;;31.52;20.52;;;;;;;;;;5076683;28;20199;-74
2020/12/31 05:00:07;;;;;;;34.20;22.45;;;;;;;;;;5090573;28;20612;-72
2020/12/31 05:02:33;;;;;;;32.40;21.92;;;;;;;;;;5083565;28;20267;-75
2020/12/31 05:05:00;;;;;;;35.42;23.00;;;;;;;;;;5093318;28;20177;-75
2020/12/31 05:07:26;;;;;;;35.17;23.20;;;;;;;;;;5084421;28;20537;-73
2020/12/31 05:10:11;;;;;;;36.92;23.80;;;;;;;;;;5091327;28;20199;-74
2020/12/31 05:12:38;;;;;;;35.88;22.08;;;;;;;;;;5095416;28;20191;-74
2020/12/31 05:15:04;;;;;;;35.92;23.08;;;;;;;;;;5094948;28;20278;-74
2020/12/31 05:17:30;;;;;;;37.05;23.08;;;;;;;;;;5081420;28;20173;-76
2020/12/31 05:19:56;;;;;;;35.72;23.70;;;;;;;;;;5075410;28;20262;-75
2020/12/31 05:22:22;;;;;;;34.33;23.52;;;;;;;;;;5084370;28;20179;-76
2020/12/31 05:24:49;;;;;;;33.15;24.50;;;;;;;;;;5094194;28;20183;-73
2020/12/31 05:27:19;;;;;;;34.15;24.45;;;;;;;;;;5094412;28;20209;-75
2020/12/31 05:30:01;;;;;;;34.22;23.05;;;;;;;;;;5085583;28;20739;-75
2020/12/31 05:32:29;;;;;;;35.63;22.88;;;;;;;;;;5080965;28;20188;-74
2020/12/31 05:34:55;;;;;;;34.20;23.88;;;;;;;;;;5085874;28;20254;-73
2020/12/31 05:37:22;;;;;;;36.47;22.48;;;;;;;;;;5094563;28;20190;-76
2020/12/31 05:39:54;;;;;;;32.40;22.65;;;;;;;;;;5094838;28;20556;-73
2020/12/31 05:42:21;;;;;;;34.40;22.35;;;;;;;;;;5094852;28;20262;-76
2020/12/31 05:45:11;;;;;;;33.65;22.88;;;;;;;;;;5082347;28;20172;-74
2020/12/31 05:47:57;;;;;;;33.30;22.45;;;;;;;;;;5074139;28;20219;-74
2020/12/31 05:50:27;;;;;;;34.35;22.80;;;;;;;;;;5090419;28;20200;-74
2020/12/31 05:52:54;;;;;;;34.97;22.80;;;;;;;;;;5074526;28;20168;-76
2020/12/31 05:55:21;;;;;;;36.15;22.15;;;;;;;;;;5073043;28;20187;-75
2020/12/31 05:57:48;;;;;;;33.30;22.30;;;;;;;;;;5084699;28;20172;-75
2020/12/31 06:00:25;;;;;;;33.15;22.65;;;;;;;;;;5093858;28;20203;-76
2020/12/31 06:02:52;;;;;;;30.58;22.25;;;;;;;;;;5094296;28;20268;-74
2020/12/31 06:05:19;;;;;;;32.22;21.95;;;;;;;;;;5080915;28;20309;-75
2020/12/31 06:07:46;;;;;;;36.35;24.02;;;;;;;;;;5093934;28;20191;-76
2020/12/31 06:10:14;;;;;;;35.42;23.20;;;;;;;;;;5086805;28;20265;-76
2020/12/31 06:12:57;;;;;;;31.75;22.88;;;;;;;;;;5084941;28;20184;-74
2020/12/31 06:15:26;;;;;;;30.60;19.10;;;;;;;;;;5080538;28;20175;-76
2020/12/31 06:17:52;;;;;;;34.00;23.00;;;;;;;;;;5087360;28;20223;-74
2020/12/31 06:20:19;;;;;;;32.40;21.73;;;;;;;;;;5094009;28;20199;-76
2020/12/31 06:22:57;;;;;;;31.63;21.63;;;;;;;;;;5077215;28;20187;-76
2020/12/31 06:25:31;;;;;;;33.17;19.95;;;;;;;;;;5081748;28;20175;-76
2020/12/31 06:28:03;;;;;;;32.28;21.48;;;;;;;;;;5093945;28;20655;-75
2020/12/31 06:30:30;;;;;;;26.83;19.48;;;;;;;;;;5093918;28;20215;-74
2020/12/31 06:32:56;;;;;;;30.67;20.40;;;;;;;;;;5093838;28;20608;-73
2020/12/31 06:35:25;;;;;;;31.83;21.63;;;;;;;;;;5090523;28;20228;-75
2020/12/31 06:37:58;;;;;;;29.63;20.48;;;;;;;;;;5093655;28;20175;-76
2020/12/31 06:40:31;;;;;;;31.38;21.35;;;;;;;;;;5091496;28;20598;-77
2020/12/31 06:43:10;;;;;;;29.60;20.02;;;;;;;;;;5082446;28;20207;-78
2020/12/31 06:45:41;;;;;;;30.27;21.05;;;;;;;;;;5092873;28;20232;-74
2020/12/31 06:48:25;;;;;;;31.50;21.20;;;;;;;;;;5092540;28;20244;-74
2020/12/31 06:51:04;;;;;;;31.20;20.98;;;;;;;;;;5090892;28;20211;-75
2020/12/31 06:53:33;;;;;;;31.15;19.73;;;;;;;;;;5093338;28;20188;-76
2020/12/31 06:56:06;;;;;;;30.95;20.27;;;;;;;;;;5094050;28;20175;-75
2020/12/31 06:58:32;;;;;;;28.70;20.20;;;;;;;;;;5080208;28;20179;-74
2020/12/31 07:00:58;;;;;;;30.67;21.77;;;;;;;;;;5094134;28;20245;-74
2020/12/31 07:03:47;;;;;;;32.80;22.00;;;;;;;;;;5094110;28;20230;-75
2020/12/31 07:06:23;;;;;;;31.50;19.48;;;;;;;;;;5093592;28;20187;-73
2020/12/31 07:08:49;;;;;;;26.67;18.25;;;;;;;;;;5094491;28;20186;-75
2020/12/31 07:11:15;;;;;;;26.20;17.55;;;;;;;;;;5081921;28;20208;-75
2020/12/31 07:13:41;;;;;;;29.45;19.67;;;;;;;;;;5073178;28;20186;-74
2020/12/31 07:16:08;;;;;;;29.40;17.67;;;;;;;;;;5073607;28;20259;-74
2020/12/31 07:18:34;;;;;;;27.15;17.90;;;;;;;;;;5073531;28;20191;-75
2020/12/31 07:21:00;;;;;;;29.05;18.40;;;;;;;;;;5073229;28;20204;-76
2020/12/31 07:23:39;;;;;;;24.13;17.30;;;;;;;;;;5073146;28;20579;-75
2020/12/31 07:26:05;;;;;;;25.15;17.92;;;;;;;;;;5073502;28;20176;-76
2020/12/31 07:28:32;;;;;;;27.88;17.58;;;;;;;;;;5080462;28;20171;-75
2020/12/31 07:30:58;;;;;;;22.70;15.60;;;;;;;;;;5093589;28;20266;-75
2020/12/31 07:33:37;;;;;;;22.38;15.65;;;;;;;;;;5093223;28;20174;-76
2020/12/31 07:36:12;;;;;;;23.52;16.17;;;;;;;;;;5093186;28;20174;-73
2020/12/31 07:38:39;;;;;;;21.88;15.63;;;;;;;;;;5093034;28;20199;-76
2020/12/31 07:41:10;;;;;;;22.20;15.05;;;;;;;;;;5092229;28;20525;-74
2020/12/31 07:43:36;;;;;;;24.92;16.23;;;;;;;;;;5086356;28;20187;-74
2020/12/31 07:46:03;;;;;;;19.60;14.60;;;;;;;;;;5081840;28;20176;-74
2020/12/31 07:48:29;;;;;;;23.67;14.82;;;;;;;;;;5081781;28;20188;-75
2020/12/31 07:50:56;;;;;;;23.88;16.70;;;;;;;;;;5080081;28;20211;-75
2020/12/31 07:53:22;;;;;;;24.33;16.33;;;;;;;;;;5072978;28;20872;-75
2020/12/31 07:55:50;;;;;;;22.13;15.30;;;;;;;;;;5068884;28;20176;-75
2020/12/31 07:58:23;;;;;;;21.15;14.35;;;;;;;;;;5075053;28;20183;-74
2020/12/31 08:00:58;;;;;;;23.55;16.02;;;;;;;;;;5088967;28;20202;-75
2020/12/31 08:03:24;;;;;;;21.27;15.55;;;;;;;;;;5081628;28;20182;-74
2020/12/31 08:05:57;;;;;;;20.65;14.55;;;;;;;;;;5088849;28;20652;-75
2020/12/31 08:08:23;;;;;;;17.98;14.10;;;;;;;;;;5086527;28;20221;-75
2020/12/31 08:10:49;;;;;;;20.77;15.15;;;;;;;;;;5081854;28;20268;-74
2020/12/31 08:13:16;;;;;;;20.48;14.57;;;;;;;;;;5073616;28;20184;-75
2020/12/31 08:15:48;;;;;;;17.35;13.23;;;;;;;;;;5072055;28;20703;-75
2020/12/31 08:18:14;;;;;;;19.73;15.32;;;;;;;;;;5086996;28;20187;-76
2020/12/31 08:20:41;;;;;;;19.15;13.80;;;;;;;;;;5092073;28;20211;-73
2020/12/31 08:23:13;;;;;;;18.65;13.98;;;;;;;;;;5090121;28;20253;-76
2020/12/31 08:25:41;;;;;;;19.10;13.90;;;;;;;;;;5092014;28;20191;-77
2020/12/31 08:28:08;;;;;;;19.60;14.20;;;;;;;;;;5092047;28;20626;-74
2020/12/31 08:30:34;;;;;;;17.90;13.55;;;;;;;;;;5077741;28;20212;-74
2020/12/31 08:33:02;;;;;;;18.00;13.68;;;;;;;;;;5082306;28;20266;-75
2020/12/31 08:35:32;;;;;;;17.35;13.30;;;;;;;;;;5092060;28;20970;-76
2020/12/31 08:38:06;;;;;;;19.15;14.05;;;;;;;;;;5090852;28;20641;-75
2020/12/31 08:40:33;;;;;;;17.33;12.68;;;;;;;;;;5082239;28;20195;-74
2020/12/31 08:42:59;;;;;;;15.02;12.23;;;;;;;;;;5092025;28;20183;-75
2020/12/31 08:45:25;;;;;;;19.33;12.68;;;;;;;;;;5078356;28;20209;-75
2020/12/31 08:47:51;;;;;;;16.85;12.40;;;;;;;;;;5091995;28;20594;-74
2020/12/31 08:50:17;;;;;;;16.58;13.10;;;;;;;;;;5071720;28;20212;-73
2020/12/31 08:52:44;;;;;;;17.13;12.13;;;;;;;;;;5082857;28;20183;-74
2020/12/31 08:55:12;;;;;;;15.15;11.73;;;;;;;;;;5089085;28;20214;-76
2020/12/31 08:57:39;;;;;;;13.82;11.13;;;;;;;;;;5087839;28;20176;-75
2020/12/31 09:00:06;;;;;;;15.43;12.63;;;;;;;;;;5079704;28;20211;-76
2020/12/31 09:02:32;;;;;;;16.33;12.27;;;;;;;;;;5091484;28;20656;-74
2020/12/31 09:05:14;;;;;;;14.82;11.18;;;;;;;;;;5071924;28;20180;-74
2020/12/31 09:07:40;;;;;;;16.45;11.02;;;;;;;;;;5077668;28;20614;-76
2020/12/31 09:10:13;;;;;;;12.27;10.60;;;;;;;;;;5077259;28;20211;-76
2020/12/31 09:12:39;;;;;;;14.50;11.63;;;;;;;;;;5075573;28;20187;-75
2020/12/31 09:15:05;;;;;;;12.73;11.38;;;;;;;;;;5071311;28;20537;-74
2020/12/31 09:17:33;;;;;;;14.63;11.30;;;;;;;;;;5073757;28;20583;-76
2020/12/31 09:19:59;;;;;;;12.48;10.23;;;;;;;;;;5070189;28;20322;-76
2020/12/31 09:22:25;;;;;;;12.57;11.20;;;;;;;;;;5072774;28;20191;-77
2020/12/31 09:24:51;;;;;;;13.90;11.13;;;;;;;;;;5070882;28;20176;-76
2020/12/31 09:27:27;;;;;;;14.90;11.25;;;;;;;;;;5074603;28;20187;-74
2020/12/31 09:29:59;;;;;;;13.68;10.90;;;;;;;;;;5090691;28;20202;-75
2020/12/31 09:32:26;;;;;;;15.18;11.18;;;;;;;;;;5071265;28;20180;-75
2020/12/31 09:34:52;;;;;;;13.18;11.10;;;;;;;;;;5071659;28;20202;-74
2020/12/31 09:37:18;;;;;;;13.13;10.80;;;;;;;;;;5073419;28;20168;-75
2020/12/31 09:39:44;;;;;;;12.73;10.70;;;;;;;;;;5078267;28;20191;-76
2020/12/31 09:42:11;;;;;;;13.05;10.35;;;;;;;;;;5084036;28;20181;-74
2020/12/31 09:44:37;;;;;;;12.90;10.65;;;;;;;;;;5084202;28;20179;-76
2020/12/31 09:47:04;;;;;;;15.45;11.40;;;;;;;;;;5084063;28;20728;-75
2020/12/31 09:49:30;;;;;;;13.13;11.10;;;;;;;;;;5074979;28;20628;-77
2020/12/31 09:51:56;;;;;;;13.65;10.85;;;;;;;;;;5091071;28;20180;-73
2020/12/31 09:54:23;;;;;;;11.70;10.45;;;;;;;;;;5076305;28;20534;-73
2020/12/31 09:56:49;;;;;;;13.35;10.65;;;;;;;;;;5071757;28;20186;-74
2020/12/31 09:59:15;;;;;;;11.13;9.40;;;;;;;;;;5088540;28;20236;-75
2020/12/31 10:01:41;;;;;;;12.88;10.65;;;;;;;;;;5088992;28;20203;-74
2020/12/31 10:04:07;;;;;;;12.00;10.43;;;;;;;;;;5090595;28;20536;-77
2020/12/31 10:06:33;;;;;;;14.20;10.60;;;;;;;;;;5090268;28;20284;-74
2020/12/31 10:08:59;;;;;;;12.18;10.40;;;;;;;;;;5087828;28;20189;-74
2020/12/31 10:11:25;;;;;;;13.15;10.90;;;;;;;;;;5094767;28;20210;-75
2020/12/31 10:13:51;;;;;;;11.65;10.23;;;;;;;;;;5090697;28;20518;-75
2020/12/31 10:16:17;;;;;;;14.45;11.50;;;;;;;;;;5090008;28;20332;-75
2020/12/31 10:18:43;;;;;;;14.13;10.98;;;;;;;;;;5070426;28;20172;-76
2020/12/31 10:21:09;;;;;;;15.88;11.15;;;;;;;;;;5082139;28;20199;-76
2020/12/31 10:23:35;;;;;;;12.75;9.77;;;;;;;;;;5090049;28;20179;-75
2020/12/31 10:26:01;;;;;;;13.65;11.20;;;;;;;;;;5076422;28;20171;-73
2020/12/31 10:28:27;;;;;;;12.13;9.85;;;;;;;;;;5082115;28;20183;-75
2020/12/31 10:30:53;;;;;;;12.95;10.45;;;;;;;;;;5070562;28;20220;-74
2020/12/31 10:33:19;;;;;;;13.18;11.48;;;;;;;;;;5070186;28;20199;-75
2020/12/31 10:35:45;;;;;;;13.00;10.82;;;;;;;;;;5069667;28;20265;-74
2020/12/31 10:38:11;;;;;;;11.85;10.27;;;;;;;;;;5070050;28;20180;-74
2020/12/31 10:40:37;;;;;;;15.43;10.00;;;;;;;;;;5081711;28;20199;-76
2020/12/31 10:43:03;;;;;;;12.40;11.05;;;;;;;;;;5083691;28;20183;-74
2020/12/31 10:45:29;;;;;;;12.95;10.25;;;;;;;;;;5088560;28;20180;-76
2020/12/31 10:47:55;;;;;;;13.85;10.50;;;;;;;;;;5086583;28;20189;-74
2020/12/31 10:50:21;;;;;;;13.15;10.45;;;;;;;;;;5087893;28;20214;-77
2020/12/31 10:52:47;;;;;;;13.77;10.52;;;;;;;;;;5089026;28;20179;-75
2020/12/31 10:55:13;;;;;;;11.57;9.45;;;;;;;;;;5088076;28;20182;-75
2020/12/31 10:57:39;;;;;;;11.45;10.10;;;;;;;;;;5089320;28;20179;-75
2020/12/31 11:00:05;;;;;;;12.30;10.18;;;;;;;;;;5085380;28;20209;-74
2020/12/31 11:02:31;;;;;;;11.93;10.70;;;;;;;;;;5089093;28;20258;-74
2020/12/31 11:04:57;;;;;;;11.98;9.70;;;;;;;;;;5089146;28;20270;-74
2020/12/31 11:07:23;;;;;;;9.77;8.82;;;;;;;;;;5088057;28;20665;-75
2020/12/31 11:09:49;;;;;;;10.07;9.00;;;;;;;;;;5099464;28;20217;-73
2020/12/31 11:12:16;;;;;;;11.73;9.80;;;;;;;;;;5089516;28;20202;-74
2020/12/31 11:14:42;;;;;;;38.67;15.18;;;;;;;;;;5089452;28;20184;-75
2020/12/31 11:17:08;;;;;;;11.63;9.45;;;;;;;;;;5085193;28;20270;-73
2020/12/31 11:19:34;;;;;;;10.88;8.75;;;;;;;;;;5075605;28;20258;-74
2020/12/31 11:22:00;;;;;;;10.65;9.30;;;;;;;;;;5089514;28;20581;-73
2020/12/31 11:24:26;;;;;;;10.93;9.68;;;;;;;;;;5088782;28;20254;-74
2020/12/31 11:26:52;;;;;;;10.02;8.48;;;;;;;;;;5084621;28;20592;-74
2020/12/31 11:29:18;;;;;;;11.00;8.93;;;;;;;;;;5078595;28;20211;-74
2020/12/31 11:31:44;;;;;;;14.15;11.82;;;;;;;;;;5088437;28;20287;-74
2020/12/31 11:34:10;;;;;;;14.30;11.10;;;;;;;;;;5089114;28;20186;-75
2020/12/31 11:36:36;;;;;;;17.13;13.40;;;;;;;;;;5089346;28;20179;-75
2020/12/31 11:39:03;;;;;;;11.05;9.85;;;;;;;;;;5089723;28;20185;-73
2020/12/31 11:41:29;;;;;;;9.93;8.70;;;;;;;;;;5086781;28;20208;-74
2020/12/31 11:43:55;;;;;;;11.27;10.07;;;;;;;;;;5079541;28;20180;-76
2020/12/31 11:46:21;;;;;;;11.07;9.02;;;;;;;;;;5069226;28;20674;-73
2020/12/31 11:48:47;;;;;;;9.20;8.20;;;;;;;;;;5069016;28;20187;-73
2020/12/31 11:51:13;;;;;;;9.65;8.45;;;;;;;;;;5070494;28;20211;-75
2020/12/31 11:53:40;;;;;;;9.82;8.80;;;;;;;;;;5087771;28;20533;-74
2020/12/31 11:56:06;;;;;;;14.63;11.88;;;;;;;;;;5092466;28;20262;-74
2020/12/31 11:58:32;;;;;;;9.50;7.85;;;;;;;;;;5087771;28;20188;-73
2020/12/31 12:00:58;;;;;;;10.57;9.00;;;;;;;;;;5086224;28;20207;-76
2020/12/31 12:03:27;;;;;;;11.55;9.25;;;;;;;;;;5084275;28;20217;-76
2020/12/31 12:05:53;;;;;;;8.73;7.82;;;;;;;;;;5089431;28;20742;-76
2020/12/31 12:08:22;;;;;;;8.50;7.50;;;;;;;;;;5092471;28;20195;-75
2020/12/31 12:10:49;;;;;;;9.45;8.20;;;;;;;;;;5100826;28;20226;-75
2020/12/31 12:13:15;;;;;;;9.27;8.05;;;;;;;;;;5072816;28;20184;-77
2020/12/31 12:15:44;;;;;;;10.45;9.00;;;;;;;;;;5082960;28;20211;-75
2020/12/31 12:18:10;;;;;;;8.90;8.00;;;;;;;;;;5078807;28;20179;-76
2020/12/31 12:20:36;;;;;;;8.98;8.07;;;;;;;;;;5092681;28;20274;-75
2020/12/31 12:23:03;;;;;;;11.30;8.65;;;;;;;;;;5073667;28;20183;-75
2020/12/31 12:25:29;;;;;;;10.52;8.65;;;;;;;;;;5072129;28;20587;-74
2020/12/31 12:27:55;;;;;;;10.43;8.60;;;;;;;;;;5074349;28;20187;-74
2020/12/31 12:30:21;;;;;;;12.30;9.20;;;;;;;;;;5088696;28;20560;-74
2020/12/31 12:32:47;;;;;;;11.05;8.77;;;;;;;;;;5092084;28;20190;-74
2020/12/31 12:35:14;;;;;;;11.40;9.80;;;;;;;;;;5077429;28;20179;-75
2020/12/31 12:37:40;;;;;;;11.90;9.25;;;;;;;;;;5086269;28;20180;-77
2020/12/31 12:40:07;;;;;;;12.77;9.40;;;;;;;;;;5092388;28;20195;-75
2020/12/31 12:42:33;;;;;;;10.88;8.77;;;;;;;;;;5092610;28;20271;-74
2020/12/31 12:45:00;;;;;;;12.20;9.50;;;;;;;;;;5090213;28;20195;-75
2020/12/31 12:47:26;;;;;;;14.40;10.02;;;;;;;;;;5080711;28;20230;-76
2020/12/31 12:49:52;;;;;;;13.63;9.57;;;;;;;;;;5086388;28;20520;-76
2020/12/31 12:52:18;;;;;;;12.38;9.63;;;;;;;;;;5072088;28;20198;-74
2020/12/31 12:54:44;;;;;;;10.63;8.50;;;;;;;;;;5085149;28;20191;-76
2020/12/31 12:57:10;;;;;;;10.60;9.13;;;;;;;;;;5070839;28;20173;-75
2020/12/31 12:59:36;;;;;;;9.13;8.10;;;;;;;;;;5075547;28;20187;-75
2020/12/31 13:02:03;;;;;;;10.40;9.07;;;;;;;;;;5088453;28;20176;-74
2020/12/31 13:04:29;;;;;;;11.48;9.20;;;;;;;;;;5084663;28;20623;-75
2020/12/31 13:06:55;;;;;;;11.65;8.77;;;;;;;;;;5082832;28;20204;-75
2020/12/31 13:09:21;;;;;;;12.15;9.23;;;;;;;;;;5088988;28;20172;-75
2020/12/31 13:11:47;;;;;;;11.18;8.90;;;;;;;;;;5076818;28;20638;-75
2020/12/31 13:14:13;;;;;;;11.77;9.05;;;;;;;;;;5077637;28;20176;-76
2020/12/31 13:16:39;;;;;;;10.23;8.80;;;;;;;;;;5074297;28;20184;-75
2020/12/31 13:19:05;;;;;;;10.70;8.68;;;;;;;;;;5077990;28;20652;-74
2020/12/31 13:21:31;;;;;;;9.50;8.50;;;;;;;;;;5088346;28;20211;-75
2020/12/31 13:23:57;;;;;;;10.60;9.48;;;;;;;;;;5083305;28;20184;-76
2020/12/31 13:26:23;;;;;;;9.52;8.52;;;;;;;;;;5072337;28;20263;-75
2020/12/31 13:28:51;;;;;;;10.10;9.00;;;;;;;;;;5091292;28;20199;-76
2020/12/31 13:31:17;;;;;;;9.45;8.45;;;;;;;;;;5088681;28;20298;-75
2020/12/31 13:33:43;;;;;;;10.30;8.70;;;;;;;;;;5073861;28;20183;-75
2020/12/31 13:36:11;;;;;;;11.35;9.98;;;;;;;;;;5070577;28;20200;-76
2020/12/31 13:38:37;;;;;;;11.40;8.90;;;;;;;;;;5090669;28;20218;-74
2020/12/31 13:41:03;;;;;;;9.85;8.80;;;;;;;;;;5087410;28;20687;-77
2020/12/31 13:43:29;;;;;;;10.95;9.23;;;;;;;;;;5082863;28;20183;-74
2020/12/31 13:45:55;;;;;;;11.70;10.25;;;;;;;;;;5074688;28;20175;-75
2020/12/31 13:48:21;;;;;;;12.98;8.73;;;;;;;;;;5070973;28;20183;-74
2020/12/31 13:50:47;;;;;;;9.88;8.82;;;;;;;;;;5070763;28;20256;-77
2020/12/31 13:53:13;;;;;;;10.98;9.25;;;;;;;;;;5071025;28;20183;-74
2020/12/31 13:55:39;;;;;;;10.98;8.50;;;;;;;;;;5070508;28;20191;-77
2020/12/31 13:58:05;;;;;;;11.52;9.27;;;;;;;;;;5077165;28;20184;-76
2020/12/31 14:00:31;;;;;;;12.00;9.80;;;;;;;;;;5083073;28;20222;-75
2020/12/31 14:02:57;;;;;;;10.95;9.75;;;;;;;;;;5084734;28;20628;-76
2020/12/31 14:05:23;;;;;;;12.43;9.25;;;;;;;;;;5087635;28;20256;-74
2020/12/31 14:07:49;;;;;;;11.65;9.30;;;;;;;;;;5090322;28;20195;-74
2020/12/31 14:10:15;;;;;;;10.07;8.73;;;;;;;;;;5078722;28;20200;-75
2020/12/31 14:12:43;;;;;;;9.88;8.75;;;;;;;;;;5083609;28;20182;-74
2020/12/31 14:15:10;;;;;;;10.82;9.18;;;;;;;;;;5089752;28;20185;-76
2020/12/31 14:17:36;;;;;;;10.43;8.93;;;;;;;;;;5082750;28;20304;-75
2020/12/31 14:20:02;;;;;;;10.23;8.05;;;;;;;;;;5090663;28;20199;-74
2020/12/31 14:22:28;;;;;;;11.13;9.05;;;;;;;;;;5081300;28;20721;-76